sensor_id;sensor_type;location;lat;lon;timestamp;P1;durP1;ratioP1;P2;durP2;ratioP2
51467;SDS011;37545;45.302;-122.946;2022-08-25T00:00:32;7.20;;;2.10;;
51467;SDS011;37545;45.302;-122.946;2022-08-25T00:03:00;6.18;;;2.10;;
51467;SDS011;37545;45.302;-122.946;2022-08-25T00:05:29;5.93;;;2.17;;
51467;SDS011;37545;45.302;-122.946;2022-08-25T00:07:57;4.38;;;2.15;;
51467;SDS011;37545;45.302;-122.946;2022-08-25T00:10:26;3.85;;;2.40;;
51467;SDS011;37545;45.302;-122.946;2022-08-25T00:12:55;5.03;;;1.95;;
51467;SDS011;37545;45.302;-122.946;2022-08-25T00:15:25;3.63;;;1.63;;
51467;SDS011;37545;45.302;-122.946;2022-08-25T00:17:54;4.47;;;2.03;;
51467;SDS011;37545;45.302;-122.946;2022-08-25T00:20:22;5.20;;;1.83;;
51467;SDS011;37545;45.302;-122.946;2022-08-25T00:22:51;6.93;;;2.08;;
51467;SDS011;37545;45.302;-122.946;2022-08-25T00:25:29;5.97;;;2.00;;
51467;SDS011;37545;45.302;-122.946;2022-08-25T00:27:57;3.25;;;2.22;;
51467;SDS011;37545;45.302;-122.946;2022-08-25T00:30:27;4.90;;;2.33;;
51467;SDS011;37545;45.302;-122.946;2022-08-25T00:32:56;4.30;;;2.17;;
51467;SDS011;37545;45.302;-122.946;2022-08-25T00:35:25;7.78;;;2.10;;
51467;SDS011;37545;45.302;-122.946;2022-08-25T00:38:09;7.63;;;2.13;;
51467;SDS011;37545;45.302;-122.946;2022-08-25T00:40:38;6.13;;;2.28;;
51467;SDS011;37545;45.302;-122.946;2022-08-25T00:43:07;6.80;;;2.05;;
51467;SDS011;37545;45.302;-122.946;2022-08-25T00:45:38;10.45;;;2.10;;
51467;SDS011;37545;45.302;-122.946;2022-08-25T00:48:07;4.80;;;2.03;;
51467;SDS011;37545;45.302;-122.946;2022-08-25T00:50:35;9.90;;;2.20;;
51467;SDS011;37545;45.302;-122.946;2022-08-25T00:53:05;5.80;;;2.15;;
51467;SDS011;37545;45.302;-122.946;2022-08-25T00:55:35;5.65;;;2.17;;
51467;SDS011;37545;45.302;-122.946;2022-08-25T00:58:07;4.28;;;2.05;;
51467;SDS011;37545;45.302;-122.946;2022-08-25T01:00:41;5.32;;;2.22;;
51467;SDS011;37545;45.302;-122.946;2022-08-25T01:03:13;5.57;;;2.10;;
51467;SDS011;37545;45.302;-122.946;2022-08-25T01:05:45;6.30;;;2.22;;
51467;SDS011;37545;45.302;-122.946;2022-08-25T01:08:14;5.90;;;2.38;;
51467;SDS011;37545;45.302;-122.946;2022-08-25T01:10:45;8.05;;;2.30;;
51467;SDS011;37545;45.302;-122.946;2022-08-25T01:13:16;7.07;;;2.25;;
51467;SDS011;37545;45.302;-122.946;2022-08-25T01:15:51;9.85;;;2.15;;
51467;SDS011;37545;45.302;-122.946;2022-08-25T01:18:22;8.55;;;2.25;;
51467;SDS011;37545;45.302;-122.946;2022-08-25T01:20:53;6.20;;;2.40;;
51467;SDS011;37545;45.302;-122.946;2022-08-25T01:23:22;6.73;;;2.30;;
51467;SDS011;37545;45.302;-122.946;2022-08-25T01:25:52;8.93;;;2.38;;
51467;SDS011;37545;45.302;-122.946;2022-08-25T01:28:28;4.28;;;2.13;;
51467;SDS011;37545;45.302;-122.946;2022-08-25T01:30:57;9.50;;;2.42;;
51467;SDS011;37545;45.302;-122.946;2022-08-25T01:33:26;11.15;;;2.30;;
51467;SDS011;37545;45.302;-122.946;2022-08-25T01:35:56;9.43;;;2.85;;
51467;SDS011;37545;45.302;-122.946;2022-08-25T01:38:25;10.68;;;2.50;;
51467;SDS011;37545;45.302;-122.946;2022-08-25T01:40:53;7.60;;;2.38;;
51467;SDS011;37545;45.302;-122.946;2022-08-25T01:43:24;6.18;;;2.28;;
51467;SDS011;37545;45.302;-122.946;2022-08-25T01:46:04;7.15;;;2.25;;
51467;SDS011;37545;45.302;-122.946;2022-08-25T01:48:32;8.38;;;3.22;;
51467;SDS011;37545;45.302;-122.946;2022-08-25T01:51:02;11.30;;;2.80;;
51467;SDS011;37545;45.302;-122.946;2022-08-25T01:53:31;9.25;;;1.85;;
51467;SDS011;37545;45.302;-122.946;2022-08-25T01:56:06;6.70;;;2.13;;
51467;SDS011;37545;45.302;-122.946;2022-08-25T01:58:36;4.47;;;2.15;;
51467;SDS011;37545;45.302;-122.946;2022-08-25T02:01:07;4.10;;;2.00;;
51467;SDS011;37545;45.302;-122.946;2022-08-25T02:06:09;6.68;;;1.75;;
51467;SDS011;37545;45.302;-122.946;2022-08-25T02:08:38;3.67;;;1.52;;
51467;SDS011;37545;45.302;-122.946;2022-08-25T02:11:09;7.55;;;1.77;;
51467;SDS011;37545;45.302;-122.946;2022-08-25T02:13:38;8.63;;;2.10;;
51467;SDS011;37545;45.302;-122.946;2022-08-25T02:16:07;7.07;;;2.22;;
51467;SDS011;37545;45.302;-122.946;2022-08-25T02:18:41;9.32;;;1.98;;
51467;SDS011;37545;45.302;-122.946;2022-08-25T02:21:12;5.07;;;1.70;;
51467;SDS011;37545;45.302;-122.946;2022-08-25T02:23:41;5.38;;;2.00;;
51467;SDS011;37545;45.302;-122.946;2022-08-25T02:26:10;6.10;;;1.83;;
51467;SDS011;37545;45.302;-122.946;2022-08-25T02:28:41;3.20;;;2.03;;
51467;SDS011;37545;45.302;-122.946;2022-08-25T02:31:10;6.97;;;1.67;;
51467;SDS011;37545;45.302;-122.946;2022-08-25T02:33:39;6.03;;;1.73;;
51467;SDS011;37545;45.302;-122.946;2022-08-25T02:36:08;7.50;;;2.80;;
51467;SDS011;37545;45.302;-122.946;2022-08-25T02:38:38;3.00;;;1.52;;
51467;SDS011;37545;45.302;-122.946;2022-08-25T02:41:08;2.13;;;1.48;;
51467;SDS011;37545;45.302;-122.946;2022-08-25T02:43:40;4.25;;;1.67;;
51467;SDS011;37545;45.302;-122.946;2022-08-25T02:46:10;4.63;;;1.70;;
51467;SDS011;37545;45.302;-122.946;2022-08-25T02:48:39;7.15;;;1.70;;
51467;SDS011;37545;45.302;-122.946;2022-08-25T02:51:08;10.65;;;2.58;;
51467;SDS011;37545;45.302;-122.946;2022-08-25T02:53:39;4.72;;;2.17;;
51467;SDS011;37545;45.302;-122.946;2022-08-25T02:56:16;3.08;;;1.90;;
51467;SDS011;37545;45.302;-122.946;2022-08-25T02:58:45;2.42;;;1.70;;
51467;SDS011;37545;45.302;-122.946;2022-08-25T03:01:14;2.85;;;2.03;;
51467;SDS011;37545;45.302;-122.946;2022-08-25T03:03:44;5.40;;;1.85;;
51467;SDS011;37545;45.302;-122.946;2022-08-25T03:06:14;5.72;;;1.80;;
51467;SDS011;37545;45.302;-122.946;2022-08-25T03:08:46;4.18;;;1.80;;
51467;SDS011;37545;45.302;-122.946;2022-08-25T03:11:15;5.57;;;2.03;;
51467;SDS011;37545;45.302;-122.946;2022-08-25T03:13:45;3.22;;;2.08;;
51467;SDS011;37545;45.302;-122.946;2022-08-25T03:16:14;5.20;;;1.80;;
51467;SDS011;37545;45.302;-122.946;2022-08-25T03:18:43;7.70;;;1.60;;
51467;SDS011;37545;45.302;-122.946;2022-08-25T03:21:12;6.40;;;2.13;;
51467;SDS011;37545;45.302;-122.946;2022-08-25T03:23:42;2.97;;;1.58;;
51467;SDS011;37545;45.302;-122.946;2022-08-25T03:26:13;4.40;;;1.65;;
51467;SDS011;37545;45.302;-122.946;2022-08-25T03:28:59;3.47;;;1.40;;
51467;SDS011;37545;45.302;-122.946;2022-08-25T03:31:30;5.38;;;1.65;;
51467;SDS011;37545;45.302;-122.946;2022-08-25T03:33:59;6.75;;;1.83;;
51467;SDS011;37545;45.302;-122.946;2022-08-25T03:36:28;6.05;;;1.60;;
51467;SDS011;37545;45.302;-122.946;2022-08-25T03:38:57;4.43;;;1.58;;
51467;SDS011;37545;45.302;-122.946;2022-08-25T03:41:30;4.50;;;1.60;;
51467;SDS011;37545;45.302;-122.946;2022-08-25T03:43:59;4.80;;;1.60;;
51467;SDS011;37545;45.302;-122.946;2022-08-25T03:46:29;2.88;;;1.27;;
51467;SDS011;37545;45.302;-122.946;2022-08-25T03:48:59;7.47;;;2.17;;
51467;SDS011;37545;45.302;-122.946;2022-08-25T03:51:30;3.58;;;1.70;;
51467;SDS011;37545;45.302;-122.946;2022-08-25T03:54:00;3.92;;;1.67;;
51467;SDS011;37545;45.302;-122.946;2022-08-25T03:56:31;4.03;;;1.50;;
51467;SDS011;37545;45.302;-122.946;2022-08-25T03:59:00;3.90;;;1.60;;
51467;SDS011;37545;45.302;-122.946;2022-08-25T04:01:30;3.47;;;1.98;;
51467;SDS011;37545;45.302;-122.946;2022-08-25T04:04:00;4.65;;;1.60;;
51467;SDS011;37545;45.302;-122.946;2022-08-25T04:06:28;3.25;;;1.30;;
51467;SDS011;37545;45.302;-122.946;2022-08-25T04:08:57;5.60;;;1.95;;
51467;SDS011;37545;45.302;-122.946;2022-08-25T04:11:26;7.53;;;3.03;;
51467;SDS011;37545;45.302;-122.946;2022-08-25T04:13:57;3.58;;;1.63;;
51467;SDS011;37545;45.302;-122.946;2022-08-25T04:16:27;7.43;;;1.58;;
51467;SDS011;37545;45.302;-122.946;2022-08-25T04:18:57;5.07;;;2.00;;
51467;SDS011;37545;45.302;-122.946;2022-08-25T04:21:30;5.18;;;1.40;;
51467;SDS011;37545;45.302;-122.946;2022-08-25T04:23:59;5.90;;;1.60;;
51467;SDS011;37545;45.302;-122.946;2022-08-25T04:26:28;5.80;;;1.60;;
51467;SDS011;37545;45.302;-122.946;2022-08-25T04:29:00;3.08;;;1.38;;
51467;SDS011;37545;45.302;-122.946;2022-08-25T04:34:00;5.03;;;1.40;;
51467;SDS011;37545;45.302;-122.946;2022-08-25T04:36:29;2.72;;;1.42;;
51467;SDS011;37545;45.302;-122.946;2022-08-25T04:38:58;3.17;;;1.52;;
51467;SDS011;37545;45.302;-122.946;2022-08-25T04:41:26;9.57;;;1.77;;
51467;SDS011;37545;45.302;-122.946;2022-08-25T04:43:56;3.13;;;1.23;;
51467;SDS011;37545;45.302;-122.946;2022-08-25T04:46:28;5.20;;;1.63;;
51467;SDS011;37545;45.302;-122.946;2022-08-25T04:48:58;6.30;;;1.42;;
51467;SDS011;37545;45.302;-122.946;2022-08-25T04:51:29;3.47;;;1.33;;
51467;SDS011;37545;45.302;-122.946;2022-08-25T04:53:59;7.47;;;1.42;;
51467;SDS011;37545;45.302;-122.946;2022-08-25T04:56:31;4.03;;;1.40;;
51467;SDS011;37545;45.302;-122.946;2022-08-25T04:59:01;3.45;;;1.50;;
51467;SDS011;37545;45.302;-122.946;2022-08-25T05:01:32;2.83;;;1.48;;
51467;SDS011;37545;45.302;-122.946;2022-08-25T05:04:02;5.32;;;1.70;;
51467;SDS011;37545;45.302;-122.946;2022-08-25T05:06:32;5.68;;;1.40;;
51467;SDS011;37545;45.302;-122.946;2022-08-25T05:09:02;4.43;;;1.38;;
51467;SDS011;37545;45.302;-122.946;2022-08-25T05:11:31;5.82;;;1.73;;
51467;SDS011;37545;45.302;-122.946;2022-08-25T05:14:00;2.13;;;1.63;;
51467;SDS011;37545;45.302;-122.946;2022-08-25T05:16:29;4.20;;;1.73;;
51467;SDS011;37545;45.302;-122.946;2022-08-25T05:18:59;4.57;;;1.70;;
51467;SDS011;37545;45.302;-122.946;2022-08-25T05:21:29;3.90;;;1.52;;
51467;SDS011;37545;45.302;-122.946;2022-08-25T05:23:58;4.25;;;1.50;;
51467;SDS011;37545;45.302;-122.946;2022-08-25T05:26:28;3.63;;;1.50;;
51467;SDS011;37545;45.302;-122.946;2022-08-25T05:28:58;4.55;;;1.50;;
51467;SDS011;37545;45.302;-122.946;2022-08-25T05:31:29;2.25;;;1.42;;
51467;SDS011;37545;45.302;-122.946;2022-08-25T05:34:03;2.33;;;1.30;;
51467;SDS011;37545;45.302;-122.946;2022-08-25T05:36:33;1.58;;;1.40;;
51467;SDS011;37545;45.302;-122.946;2022-08-25T05:39:03;6.90;;;1.60;;
51467;SDS011;37545;45.302;-122.946;2022-08-25T05:41:31;2.63;;;1.38;;
51467;SDS011;37545;45.302;-122.946;2022-08-25T05:44:00;2.15;;;1.40;;
51467;SDS011;37545;45.302;-122.946;2022-08-25T05:46:28;1.65;;;1.33;;
51467;SDS011;37545;45.302;-122.946;2022-08-25T05:48:57;3.58;;;1.45;;
51467;SDS011;37545;45.302;-122.946;2022-08-25T05:51:28;2.33;;;1.30;;
51467;SDS011;37545;45.302;-122.946;2022-08-25T05:53:56;1.85;;;1.50;;
51467;SDS011;37545;45.302;-122.946;2022-08-25T05:56:25;4.93;;;1.70;;
51467;SDS011;37545;45.302;-122.946;2022-08-25T05:58:53;4.00;;;1.50;;
51467;SDS011;37545;45.302;-122.946;2022-08-25T06:01:23;4.97;;;1.33;;
51467;SDS011;37545;45.302;-122.946;2022-08-25T06:04:11;7.18;;;1.55;;
51467;SDS011;37545;45.302;-122.946;2022-08-25T06:06:40;6.80;;;1.45;;
51467;SDS011;37545;45.302;-122.946;2022-08-25T06:09:09;5.47;;;1.40;;
51467;SDS011;37545;45.302;-122.946;2022-08-25T06:11:38;2.30;;;1.65;;
51467;SDS011;37545;45.302;-122.946;2022-08-25T06:14:08;3.65;;;1.42;;
51467;SDS011;37545;45.302;-122.946;2022-08-25T06:16:37;3.55;;;1.40;;
51467;SDS011;37545;45.302;-122.946;2022-08-25T06:19:07;3.08;;;1.52;;
51467;SDS011;37545;45.302;-122.946;2022-08-25T06:21:38;2.42;;;1.45;;
51467;SDS011;37545;45.302;-122.946;2022-08-25T06:24:07;3.08;;;1.38;;
51467;SDS011;37545;45.302;-122.946;2022-08-25T06:26:36;2.20;;;1.40;;
51467;SDS011;37545;45.302;-122.946;2022-08-25T06:29:05;2.03;;;1.45;;
51467;SDS011;37545;45.302;-122.946;2022-08-25T06:31:34;3.35;;;1.55;;
51467;SDS011;37545;45.302;-122.946;2022-08-25T06:34:02;1.42;;;1.33;;
51467;SDS011;37545;45.302;-122.946;2022-08-25T06:36:31;2.10;;;1.30;;
51467;SDS011;37545;45.302;-122.946;2022-08-25T06:39:02;1.58;;;1.23;;
51467;SDS011;37545;45.302;-122.946;2022-08-25T06:41:31;1.88;;;1.20;;
51467;SDS011;37545;45.302;-122.946;2022-08-25T06:44:00;3.15;;;1.20;;
51467;SDS011;37545;45.302;-122.946;2022-08-25T06:46:29;1.92;;;1.20;;
51467;SDS011;37545;45.302;-122.946;2022-08-25T06:48:58;2.90;;;1.33;;
51467;SDS011;37545;45.302;-122.946;2022-08-25T06:51:26;2.88;;;1.17;;
51467;SDS011;37545;45.302;-122.946;2022-08-25T06:53:55;1.42;;;1.25;;
51467;SDS011;37545;45.302;-122.946;2022-08-25T06:56:25;1.73;;;1.60;;
51467;SDS011;37545;45.302;-122.946;2022-08-25T06:58:54;1.40;;;1.30;;
51467;SDS011;37545;45.302;-122.946;2022-08-25T07:01:23;1.35;;;1.23;;
51467;SDS011;37545;45.302;-122.946;2022-08-25T07:03:53;2.38;;;1.50;;
51467;SDS011;37545;45.302;-122.946;2022-08-25T07:06:22;2.85;;;1.50;;
51467;SDS011;37545;45.302;-122.946;2022-08-25T07:08:52;2.28;;;1.35;;
51467;SDS011;37545;45.302;-122.946;2022-08-25T07:11:22;2.13;;;1.20;;
51467;SDS011;37545;45.302;-122.946;2022-08-25T07:13:52;2.28;;;1.30;;
51467;SDS011;37545;45.302;-122.946;2022-08-25T07:16:21;3.70;;;1.63;;
51467;SDS011;37545;45.302;-122.946;2022-08-25T07:18:50;1.92;;;1.52;;
51467;SDS011;37545;45.302;-122.946;2022-08-25T07:21:21;2.67;;;1.35;;
51467;SDS011;37545;45.302;-122.946;2022-08-25T07:23:50;2.72;;;1.20;;
51467;SDS011;37545;45.302;-122.946;2022-08-25T07:26:19;2.38;;;1.40;;
51467;SDS011;37545;45.302;-122.946;2022-08-25T07:28:51;2.70;;;1.33;;
51467;SDS011;37545;45.302;-122.946;2022-08-25T07:31:20;4.60;;;1.40;;
51467;SDS011;37545;45.302;-122.946;2022-08-25T07:33:49;2.45;;;1.23;;
51467;SDS011;37545;45.302;-122.946;2022-08-25T07:36:33;1.20;;;1.00;;
51467;SDS011;37545;45.302;-122.946;2022-08-25T07:39:02;4.78;;;1.45;;
51467;SDS011;37545;45.302;-122.946;2022-08-25T07:41:31;2.10;;;1.40;;
51467;SDS011;37545;45.302;-122.946;2022-08-25T07:44:05;3.13;;;1.20;;
51467;SDS011;37545;45.302;-122.946;2022-08-25T07:46:34;2.50;;;1.73;;
51467;SDS011;37545;45.302;-122.946;2022-08-25T07:49:03;1.90;;;1.38;;
51467;SDS011;37545;45.302;-122.946;2022-08-25T07:51:32;3.70;;;1.40;;
51467;SDS011;37545;45.302;-122.946;2022-08-25T07:54:00;1.55;;;1.20;;
51467;SDS011;37545;45.302;-122.946;2022-08-25T07:56:29;2.35;;;1.30;;
51467;SDS011;37545;45.302;-122.946;2022-08-25T07:58:58;8.32;;;1.60;;
51467;SDS011;37545;45.302;-122.946;2022-08-25T08:01:28;1.77;;;1.52;;
51467;SDS011;37545;45.302;-122.946;2022-08-25T08:03:56;1.83;;;1.40;;
51467;SDS011;37545;45.302;-122.946;2022-08-25T08:06:25;2.28;;;1.40;;
51467;SDS011;37545;45.302;-122.946;2022-08-25T08:08:53;3.65;;;1.50;;
51467;SDS011;37545;45.302;-122.946;2022-08-25T08:11:23;2.13;;;1.58;;
51467;SDS011;37545;45.302;-122.946;2022-08-25T08:13:54;2.83;;;1.58;;
51467;SDS011;37545;45.302;-122.946;2022-08-25T08:16:24;3.15;;;1.63;;
51467;SDS011;37545;45.302;-122.946;2022-08-25T08:18:56;1.87;;;1.50;;
51467;SDS011;37545;45.302;-122.946;2022-08-25T08:21:26;3.58;;;1.70;;
51467;SDS011;37545;45.302;-122.946;2022-08-25T08:23:57;3.33;;;1.88;;
51467;SDS011;37545;45.302;-122.946;2022-08-25T08:26:26;2.47;;;1.50;;
51467;SDS011;37545;45.302;-122.946;2022-08-25T08:28:55;3.80;;;1.50;;
51467;SDS011;37545;45.302;-122.946;2022-08-25T08:31:24;2.95;;;1.80;;
51467;SDS011;37545;45.302;-122.946;2022-08-25T08:33:53;3.17;;;1.50;;
51467;SDS011;37545;45.302;-122.946;2022-08-25T08:36:31;2.00;;;1.80;;
51467;SDS011;37545;45.302;-122.946;2022-08-25T08:38:59;3.05;;;1.50;;
51467;SDS011;37545;45.302;-122.946;2022-08-25T08:41:38;4.18;;;1.60;;
51467;SDS011;37545;45.302;-122.946;2022-08-25T08:44:40;2.45;;;1.20;;
51467;SDS011;37545;45.302;-122.946;2022-08-25T08:47:20;1.95;;;1.40;;
51467;SDS011;37545;45.302;-122.946;2022-08-25T08:49:58;5.50;;;1.40;;
51467;SDS011;37545;45.302;-122.946;2022-08-25T08:52:36;2.38;;;1.42;;
51467;SDS011;37545;45.302;-122.946;2022-08-25T08:55:10;1.88;;;1.35;;
51467;SDS011;37545;45.302;-122.946;2022-08-25T08:57:47;1.48;;;1.25;;
51467;SDS011;37545;45.302;-122.946;2022-08-25T09:00:20;2.33;;;1.90;;
51467;SDS011;37545;45.302;-122.946;2022-08-25T09:02:51;1.80;;;1.33;;
51467;SDS011;37545;45.302;-122.946;2022-08-25T09:05:26;2.80;;;1.30;;
51467;SDS011;37545;45.302;-122.946;2022-08-25T09:10:27;2.28;;;1.33;;
51467;SDS011;37545;45.302;-122.946;2022-08-25T09:13:07;1.60;;;1.45;;
51467;SDS011;37545;45.302;-122.946;2022-08-25T09:15:48;1.70;;;1.40;;
51467;SDS011;37545;45.302;-122.946;2022-08-25T09:18:51;3.47;;;1.48;;
51467;SDS011;37545;45.302;-122.946;2022-08-25T09:21:33;3.17;;;1.88;;
51467;SDS011;37545;45.302;-122.946;2022-08-25T09:24:14;3.13;;;1.58;;
51467;SDS011;37545;45.302;-122.946;2022-08-25T09:26:57;3.00;;;1.70;;
51467;SDS011;37545;45.302;-122.946;2022-08-25T09:29:38;2.13;;;1.23;;
51467;SDS011;37545;45.302;-122.946;2022-08-25T09:32:15;2.67;;;1.70;;
51467;SDS011;37545;45.302;-122.946;2022-08-25T09:34:45;1.65;;;1.40;;
51467;SDS011;37545;45.302;-122.946;2022-08-25T09:37:18;2.22;;;1.60;;
51467;SDS011;37545;45.302;-122.946;2022-08-25T09:39:47;2.58;;;1.55;;
51467;SDS011;37545;45.302;-122.946;2022-08-25T09:42:17;4.43;;;1.67;;
51467;SDS011;37545;45.302;-122.946;2022-08-25T09:44:46;1.75;;;1.52;;
51467;SDS011;37545;45.302;-122.946;2022-08-25T09:47:20;3.72;;;1.70;;
51467;SDS011;37545;45.302;-122.946;2022-08-25T09:49:55;2.30;;;1.42;;
51467;SDS011;37545;45.302;-122.946;2022-08-25T09:52:31;6.05;;;2.05;;
51467;SDS011;37545;45.302;-122.946;2022-08-25T09:55:23;2.78;;;1.55;;
51467;SDS011;37545;45.302;-122.946;2022-08-25T09:57:56;3.63;;;1.75;;
51467;SDS011;37545;45.302;-122.946;2022-08-25T10:00:26;7.22;;;1.85;;
51467;SDS011;37545;45.302;-122.946;2022-08-25T10:03:05;2.20;;;1.50;;
51467;SDS011;37545;45.302;-122.946;2022-08-25T10:05:37;1.65;;;1.50;;
51467;SDS011;37545;45.302;-122.946;2022-08-25T10:08:23;2.33;;;1.55;;
51467;SDS011;37545;45.302;-122.946;2022-08-25T10:10:57;2.92;;;1.77;;
51467;SDS011;37545;45.302;-122.946;2022-08-25T10:13:35;3.70;;;1.77;;
51467;SDS011;37545;45.302;-122.946;2022-08-25T10:16:07;2.10;;;1.60;;
51467;SDS011;37545;45.302;-122.946;2022-08-25T10:21:08;2.17;;;1.60;;
51467;SDS011;37545;45.302;-122.946;2022-08-25T10:23:47;3.75;;;1.58;;
51467;SDS011;37545;45.302;-122.946;2022-08-25T10:26:20;2.78;;;1.42;;
51467;SDS011;37545;45.302;-122.946;2022-08-25T10:29:04;3.67;;;1.77;;
51467;SDS011;37545;45.302;-122.946;2022-08-25T10:31:38;2.38;;;1.40;;
51467;SDS011;37545;45.302;-122.946;2022-08-25T10:34:16;2.28;;;1.50;;
51467;SDS011;37545;45.302;-122.946;2022-08-25T10:36:59;1.63;;;1.40;;
51467;SDS011;37545;45.302;-122.946;2022-08-25T10:39:39;2.15;;;1.70;;
51467;SDS011;37545;45.302;-122.946;2022-08-25T10:42:15;2.90;;;1.65;;
51467;SDS011;37545;45.302;-122.946;2022-08-25T10:44:59;2.38;;;2.00;;
51467;SDS011;37545;45.302;-122.946;2022-08-25T10:48:24;3.30;;;1.60;;
51467;SDS011;37545;45.302;-122.946;2022-08-25T10:51:30;2.75;;;1.58;;
51467;SDS011;37545;45.302;-122.946;2022-08-25T10:54:07;1.92;;;1.48;;
51467;SDS011;37545;45.302;-122.946;2022-08-25T10:56:51;2.20;;;1.73;;
51467;SDS011;37545;45.302;-122.946;2022-08-25T10:59:30;2.50;;;1.80;;
51467;SDS011;37545;45.302;-122.946;2022-08-25T11:02:22;2.10;;;1.48;;
51467;SDS011;37545;45.302;-122.946;2022-08-25T11:05:15;2.63;;;1.70;;
51467;SDS011;37545;45.302;-122.946;2022-08-25T11:07:50;2.95;;;1.70;;
51467;SDS011;37545;45.302;-122.946;2022-08-25T11:10:26;2.05;;;1.67;;
51467;SDS011;37545;45.302;-122.946;2022-08-25T11:13:04;2.42;;;1.60;;
51467;SDS011;37545;45.302;-122.946;2022-08-25T11:15:42;2.38;;;1.40;;
51467;SDS011;37545;45.302;-122.946;2022-08-25T11:18:18;3.65;;;1.55;;
51467;SDS011;37545;45.302;-122.946;2022-08-25T11:20:58;3.92;;;1.75;;
51467;SDS011;37545;45.302;-122.946;2022-08-25T11:23:34;1.50;;;1.40;;
51467;SDS011;37545;45.302;-122.946;2022-08-25T11:26:07;2.17;;;1.60;;
51467;SDS011;37545;45.302;-122.946;2022-08-25T11:28:49;2.50;;;1.73;;
51467;SDS011;37545;45.302;-122.946;2022-08-25T11:31:24;1.95;;;1.45;;
51467;SDS011;37545;45.302;-122.946;2022-08-25T11:33:53;3.03;;;1.42;;
51467;SDS011;37545;45.302;-122.946;2022-08-25T11:36:24;2.38;;;1.80;;
51467;SDS011;37545;45.302;-122.946;2022-08-25T11:39:00;3.75;;;1.83;;
51467;SDS011;37545;45.302;-122.946;2022-08-25T11:41:40;2.10;;;1.90;;
51467;SDS011;37545;45.302;-122.946;2022-08-25T11:44:26;1.95;;;1.75;;
51467;SDS011;37545;45.302;-122.946;2022-08-25T11:47:22;2.35;;;1.58;;
51467;SDS011;37545;45.302;-122.946;2022-08-25T11:50:02;2.72;;;1.83;;
51467;SDS011;37545;45.302;-122.946;2022-08-25T11:55:22;2.88;;;1.80;;
51467;SDS011;37545;45.302;-122.946;2022-08-25T11:58:26;3.05;;;1.90;;
51467;SDS011;37545;45.302;-122.946;2022-08-25T12:04:33;2.70;;;2.15;;
51467;SDS011;37545;45.302;-122.946;2022-08-25T12:07:15;7.40;;;2.00;;
51467;SDS011;37545;45.302;-122.946;2022-08-25T12:10:11;4.07;;;2.17;;
51467;SDS011;37545;45.302;-122.946;2022-08-25T12:15:57;2.25;;;1.88;;
51467;SDS011;37545;45.302;-122.946;2022-08-25T12:18:45;4.47;;;2.30;;
51467;SDS011;37545;45.302;-122.946;2022-08-25T12:24:08;6.53;;;1.60;;
51467;SDS011;37545;45.302;-122.946;2022-08-25T12:26:44;4.05;;;1.90;;
51467;SDS011;37545;45.302;-122.946;2022-08-25T12:29:20;6.45;;;1.63;;
51467;SDS011;37545;45.302;-122.946;2022-08-25T12:32:17;5.18;;;2.00;;
51467;SDS011;37545;45.302;-122.946;2022-08-25T12:35:11;3.63;;;2.13;;
51467;SDS011;37545;45.302;-122.946;2022-08-25T12:38:02;3.97;;;1.63;;
51467;SDS011;37545;45.302;-122.946;2022-08-25T12:40:35;3.33;;;1.70;;
51467;SDS011;37545;45.302;-122.946;2022-08-25T12:43:07;2.83;;;1.80;;
51467;SDS011;37545;45.302;-122.946;2022-08-25T12:45:40;2.25;;;1.85;;
51467;SDS011;37545;45.302;-122.946;2022-08-25T12:51:15;4.88;;;1.95;;
51467;SDS011;37545;45.302;-122.946;2022-08-25T12:53:48;2.97;;;2.00;;
51467;SDS011;37545;45.302;-122.946;2022-08-25T12:56:21;3.85;;;1.80;;
51467;SDS011;37545;45.302;-122.946;2022-08-25T12:58:55;5.05;;;2.03;;
51467;SDS011;37545;45.302;-122.946;2022-08-25T13:01:37;5.28;;;1.85;;
51467;SDS011;37545;45.302;-122.946;2022-08-25T13:07:25;2.13;;;1.92;;
51467;SDS011;37545;45.302;-122.946;2022-08-25T13:13:02;3.38;;;1.50;;
51467;SDS011;37545;45.302;-122.946;2022-08-25T13:15:36;3.13;;;1.70;;
51467;SDS011;37545;45.302;-122.946;2022-08-25T13:18:14;3.42;;;1.95;;
51467;SDS011;37545;45.302;-122.946;2022-08-25T13:20:46;2.63;;;2.10;;
51467;SDS011;37545;45.302;-122.946;2022-08-25T13:23:19;3.22;;;2.00;;
51467;SDS011;37545;45.302;-122.946;2022-08-25T13:25:56;2.83;;;1.80;;
51467;SDS011;37545;45.302;-122.946;2022-08-25T13:28:26;2.53;;;1.70;;
51467;SDS011;37545;45.302;-122.946;2022-08-25T13:31:05;3.58;;;1.83;;
51467;SDS011;37545;45.302;-122.946;2022-08-25T13:33:34;4.55;;;2.20;;
51467;SDS011;37545;45.302;-122.946;2022-08-25T13:36:03;4.65;;;1.95;;
51467;SDS011;37545;45.302;-122.946;2022-08-25T13:39:08;3.30;;;1.85;;
51467;SDS011;37545;45.302;-122.946;2022-08-25T13:41:44;3.38;;;1.67;;
51467;SDS011;37545;45.302;-122.946;2022-08-25T13:44:14;2.78;;;1.83;;
51467;SDS011;37545;45.302;-122.946;2022-08-25T13:46:44;5.07;;;1.75;;
51467;SDS011;37545;45.302;-122.946;2022-08-25T13:49:23;2.20;;;1.83;;
51467;SDS011;37545;45.302;-122.946;2022-08-25T13:51:53;2.20;;;1.70;;
51467;SDS011;37545;45.302;-122.946;2022-08-25T13:54:23;2.60;;;1.63;;
51467;SDS011;37545;45.302;-122.946;2022-08-25T13:57:04;1.85;;;1.52;;
51467;SDS011;37545;45.302;-122.946;2022-08-25T13:59:34;3.00;;;1.90;;
51467;SDS011;37545;45.302;-122.946;2022-08-25T14:02:05;5.82;;;1.70;;
51467;SDS011;37545;45.302;-122.946;2022-08-25T14:04:43;6.70;;;2.33;;
51467;SDS011;37545;45.302;-122.946;2022-08-25T14:07:24;9.30;;;2.17;;
51467;SDS011;37545;45.302;-122.946;2022-08-25T14:09:58;4.63;;;1.63;;
51467;SDS011;37545;45.302;-122.946;2022-08-25T14:12:30;7.43;;;2.38;;
51467;SDS011;37545;45.302;-122.946;2022-08-25T14:15:04;5.25;;;1.92;;
51467;SDS011;37545;45.302;-122.946;2022-08-25T14:17:35;3.97;;;1.90;;
51467;SDS011;37545;45.302;-122.946;2022-08-25T14:20:06;6.68;;;1.85;;
51467;SDS011;37545;45.302;-122.946;2022-08-25T14:22:45;6.18;;;2.10;;
51467;SDS011;37545;45.302;-122.946;2022-08-25T14:25:13;3.70;;;2.28;;
51467;SDS011;37545;45.302;-122.946;2022-08-25T14:27:44;2.40;;;2.03;;
51467;SDS011;37545;45.302;-122.946;2022-08-25T14:30:20;5.53;;;2.30;;
51467;SDS011;37545;45.302;-122.946;2022-08-25T14:32:48;7.45;;;2.35;;
51467;SDS011;37545;45.302;-122.946;2022-08-25T14:35:17;2.83;;;2.13;;
51467;SDS011;37545;45.302;-122.946;2022-08-25T14:37:46;4.82;;;2.15;;
51467;SDS011;37545;45.302;-122.946;2022-08-25T14:40:15;2.70;;;2.20;;
51467;SDS011;37545;45.302;-122.946;2022-08-25T14:42:46;5.65;;;2.03;;
51467;SDS011;37545;45.302;-122.946;2022-08-25T14:45:15;5.90;;;2.13;;
51467;SDS011;37545;45.302;-122.946;2022-08-25T14:47:45;4.20;;;1.67;;
51467;SDS011;37545;45.302;-122.946;2022-08-25T14:50:14;4.20;;;1.98;;
51467;SDS011;37545;45.302;-122.946;2022-08-25T14:52:42;3.47;;;1.98;;
51467;SDS011;37545;45.302;-122.946;2022-08-25T14:55:11;2.83;;;2.22;;
51467;SDS011;37545;45.302;-122.946;2022-08-25T14:57:39;3.17;;;2.00;;
51467;SDS011;37545;45.302;-122.946;2022-08-25T15:00:10;3.30;;;1.92;;
51467;SDS011;37545;45.302;-122.946;2022-08-25T15:02:40;2.25;;;1.80;;
51467;SDS011;37545;45.302;-122.946;2022-08-25T15:05:10;2.63;;;1.95;;
51467;SDS011;37545;45.302;-122.946;2022-08-25T15:07:42;2.58;;;1.85;;
51467;SDS011;37545;45.302;-122.946;2022-08-25T15:10:27;3.13;;;1.73;;
51467;SDS011;37545;45.302;-122.946;2022-08-25T15:12:56;7.93;;;2.13;;